Decoded Metar for WBGG (KUCHING in MALAYSIA) (IATA:KCH) | Meteo·Mobile Aviation Weather
aviador You're here:

WBGG Decoded Metar

KUCHING in MALAYSIA
Report Time2020-02-18 22:30:00
UTC Time2020-02-18 22:44:09
Flight Rules vfr VFR
WindCalm
Visibility9999 m
Phenomena:N/A
Clouds:Scattered 020 Hf
Expected CloudBase > 400 ft AGL from Temp-Dew spread
CeilingNone
Temp25°C (ISA +10)
Dew Point24°C (94% RH)
QNH1012 hPa
Density Alt1,693 ft
Elevation89 ft
Report Wrong Elevation
Raw Report
METAR WBGG 182230Z 00000KT 9999 SCT020 25/24 Q1012 NOSIG=

Extra information for WBGG:More info

Metar Taf Metar & Taf Last 4 Metars F.Rules Stats Wind Profile Meteogram Temp Stats Airport Information Weather charts Add Link Nearby VenuesMetar ALERT Operation Metar Decoded Social comments